createdAt,value
2023-01-30T00:01:56.312Z,31.73
2023-01-30T00:04:23.533Z,32.42
2023-01-30T00:06:50.696Z,34.05
2023-01-30T00:09:17.927Z,34.90
2023-01-30T00:11:45.074Z,32.42
2023-01-30T00:14:12.170Z,32.25
2023-01-30T00:16:39.383Z,29.60
2023-01-30T00:19:06.481Z,29.65
2023-01-30T00:21:33.662Z,32.67
2023-01-30T00:24:01.198Z,29.45
2023-01-30T00:26:28.464Z,30.05
2023-01-30T00:28:55.683Z,30.95
2023-01-30T00:31:23.190Z,39.65
2023-01-30T00:33:50.635Z,33.05
2023-01-30T00:36:18.007Z,32.10
2023-01-30T00:38:45.141Z,26.65
2023-01-30T00:41:13.856Z,30.60
2023-01-30T00:44:08.012Z,29.73
2023-01-30T00:46:53.878Z,29.83
2023-01-30T00:49:21.576Z,29.10
2023-01-30T00:51:48.996Z,29.55
2023-01-30T00:54:16.199Z,28.52
2023-01-30T00:56:43.382Z,31.00
2023-01-30T00:59:10.507Z,28.95
2023-01-30T01:01:38.177Z,32.40
2023-01-30T01:04:07.045Z,27.58
2023-01-30T01:06:34.218Z,27.63
2023-01-30T01:09:01.760Z,29.48
2023-01-30T01:11:30.102Z,27.60
2023-01-30T01:13:59.694Z,26.25
2023-01-30T01:16:29.144Z,26.75
2023-01-30T01:18:58.734Z,28.23
2023-01-30T01:21:26.285Z,28.85
2023-01-30T01:23:56.538Z,30.08
2023-01-30T01:28:55.596Z,26.27
2023-01-30T01:31:24.553Z,27.63
2023-01-30T01:33:52.148Z,28.10
2023-01-30T01:36:42.340Z,28.25
2023-01-30T01:39:06.436Z,25.02
2023-01-30T01:41:33.434Z,27.40
2023-01-30T01:44:10.005Z,26.95
2023-01-30T01:46:45.344Z,24.25
2023-01-30T01:49:21.546Z,25.63
2023-01-30T01:52:00.132Z,28.95
2023-01-30T01:54:36.025Z,27.65
2023-01-30T01:57:06.963Z,25.52
2023-01-30T01:59:42.663Z,25.50
2023-01-30T02:02:13.252Z,22.20
2023-01-30T02:05:04.103Z,26.63
2023-01-30T02:07:37.884Z,21.65
2023-01-30T02:10:07.279Z,27.73
2023-01-30T02:12:34.418Z,24.02
2023-01-30T02:15:02.632Z,25.83
2023-01-30T02:17:29.733Z,25.70
2023-01-30T02:20:06.912Z,22.13
2023-01-30T02:22:55.053Z,24.05
2023-01-30T02:25:49.597Z,24.67
2023-01-30T02:28:25.663Z,21.08
2023-01-30T02:31:33.887Z,25.13
2023-01-30T02:34:10.375Z,23.67
2023-01-30T02:37:08.108Z,25.42
2023-01-30T02:40:26.326Z,25.00
2023-01-30T02:42:59.363Z,23.40
2023-01-30T02:45:54.012Z,24.20
2023-01-30T02:48:27.518Z,25.23
2023-01-30T02:51:19.804Z,24.50
2023-01-30T02:53:48.875Z,23.95
2023-01-30T02:56:16.070Z,23.75
2023-01-30T02:58:50.154Z,21.67
2023-01-30T03:01:26.627Z,19.77
2023-01-30T03:04:35.889Z,18.63
2023-01-30T03:07:50.044Z,21.48
2023-01-30T03:10:32.155Z,20.30
2023-01-30T03:13:16.750Z,21.23
2023-01-30T03:15:50.552Z,20.20
2023-01-30T03:18:19.829Z,19.85
2023-01-30T03:20:47.220Z,17.17
2023-01-30T03:23:14.591Z,20.30
2023-01-30T03:25:44.868Z,22.25
2023-01-30T03:28:14.904Z,20.42
2023-01-30T03:30:42.004Z,18.02
2023-01-30T03:33:10.742Z,18.33
2023-01-30T03:35:39.713Z,18.30
2023-01-30T03:38:07.367Z,20.00
2023-01-30T03:40:35.633Z,19.77
2023-01-30T03:43:02.921Z,18.15
2023-01-30T03:45:30.477Z,20.38
2023-01-30T03:47:58.634Z,19.70
2023-01-30T03:50:25.741Z,17.60
2023-01-30T03:52:53.146Z,20.40
2023-01-30T03:55:21.838Z,19.02
2023-01-30T03:57:49.004Z,20.60
2023-01-30T04:00:18.695Z,19.77
2023-01-30T04:02:49.374Z,20.30
2023-01-30T04:05:19.038Z,19.80
2023-01-30T04:07:51.730Z,18.45
2023-01-30T04:10:20.231Z,20.90
2023-01-30T04:12:47.981Z,19.73
2023-01-30T04:15:16.598Z,21.13
2023-01-30T04:18:03.342Z,20.60
2023-01-30T04:20:49.195Z,19.30
2023-01-30T04:23:21.077Z,20.25
2023-01-30T04:25:48.631Z,19.15
2023-01-30T04:28:18.516Z,19.77
2023-01-30T04:30:45.876Z,26.33
2023-01-30T04:33:35.538Z,27.13
2023-01-30T04:36:05.215Z,24.65
2023-01-30T04:38:34.221Z,21.27
2023-01-30T04:41:02.166Z,23.05
2023-01-30T04:43:32.262Z,26.13
2023-01-30T04:46:17.588Z,23.63
2023-01-30T04:48:44.939Z,27.55
2023-01-30T04:51:12.099Z,21.75
2023-01-30T04:53:39.173Z,21.60
2023-01-30T04:56:07.098Z,25.77
2023-01-30T04:58:34.266Z,24.58
2023-01-30T05:01:15.277Z,22.77
2023-01-30T05:03:43.524Z,23.58
2023-01-30T05:06:10.663Z,22.08
2023-01-30T05:08:37.832Z,23.15
2023-01-30T05:11:06.589Z,25.88
2023-01-30T05:13:33.765Z,23.52
2023-01-30T05:16:00.980Z,24.23
2023-01-30T05:18:28.117Z,24.23
2023-01-30T05:20:55.765Z,20.67
2023-01-30T05:23:22.904Z,28.48
2023-01-30T05:25:49.969Z,25.70
2023-01-30T05:28:17.037Z,25.38
2023-01-30T05:30:46.257Z,23.98
2023-01-30T05:33:14.164Z,26.23
2023-01-30T05:35:49.856Z,22.67
2023-01-30T05:38:17.101Z,26.52
2023-01-30T05:40:44.214Z,24.80
2023-01-30T05:43:11.374Z,28.92
2023-01-30T05:45:38.647Z,25.98
2023-01-30T05:48:05.924Z,28.48
2023-01-30T05:50:33.098Z,24.02
2023-01-30T05:53:00.234Z,28.20
2023-01-30T05:55:27.382Z,28.42
2023-01-30T05:57:54.555Z,24.10
2023-01-30T06:00:22.176Z,23.17
2023-01-30T06:02:49.298Z,25.80
2023-01-30T06:05:16.928Z,22.88
2023-01-30T06:07:44.197Z,25.27
2023-01-30T06:10:11.726Z,29.30
2023-01-30T06:12:38.844Z,23.02
2023-01-30T06:15:06.519Z,28.17
2023-01-30T06:17:33.668Z,23.73
2023-01-30T06:20:00.723Z,22.85
2023-01-30T06:22:27.959Z,24.00
2023-01-30T06:24:55.208Z,23.33
2023-01-30T06:27:22.268Z,24.88
2023-01-30T06:29:49.365Z,21.30
2023-01-30T06:32:16.574Z,22.25
2023-01-30T06:34:43.633Z,26.23
2023-01-30T06:37:10.772Z,24.75
2023-01-30T06:39:38.081Z,23.75
2023-01-30T06:42:05.422Z,21.45
2023-01-30T06:44:32.519Z,24.33
2023-01-30T06:46:59.740Z,22.08
2023-01-30T06:49:27.459Z,22.60
2023-01-30T06:51:54.580Z,20.77
2023-01-30T06:54:21.704Z,20.10
2023-01-30T06:56:48.743Z,21.33
2023-01-30T06:59:15.878Z,21.92
2023-01-30T07:01:43.160Z,19.88
2023-01-30T07:04:10.296Z,21.23
2023-01-30T07:06:39.036Z,23.85
2023-01-30T07:09:07.187Z,23.00
2023-01-30T07:11:34.242Z,25.80
2023-01-30T07:14:01.362Z,25.70
2023-01-30T07:16:29.780Z,25.98
2023-01-30T07:18:59.952Z,27.20
2023-01-30T07:23:54.735Z,24.85
2023-01-30T07:26:22.123Z,26.75
2023-01-30T07:28:49.246Z,28.63
2023-01-30T07:31:16.415Z,29.13
2023-01-30T07:33:43.549Z,29.60
2023-01-30T07:36:10.711Z,25.92
2023-01-30T07:38:37.791Z,30.58
2023-01-30T07:41:05.016Z,25.67
2023-01-30T07:43:32.803Z,28.42
2023-01-30T07:46:00.915Z,26.55
2023-01-30T07:48:28.029Z,29.05
2023-01-30T07:50:59.345Z,32.85
2023-01-30T07:53:26.548Z,30.38
2023-01-30T07:55:53.706Z,29.92
2023-01-30T07:58:20.793Z,26.65
2023-01-30T08:00:48.043Z,24.30
2023-01-30T08:03:16.663Z,29.95
2023-01-30T08:05:47.008Z,23.90
2023-01-30T08:08:14.871Z,27.15
2023-01-30T08:10:42.305Z,23.55
2023-01-30T08:13:09.539Z,25.55
2023-01-30T08:15:36.743Z,23.02
2023-01-30T08:18:04.128Z,22.67
2023-01-30T08:20:31.340Z,18.50
2023-01-30T08:22:59.727Z,22.50
2023-01-30T08:25:26.821Z,22.23
2023-01-30T08:27:54.482Z,25.02
2023-01-30T08:30:22.885Z,21.42
2023-01-30T08:32:50.230Z,20.83
2023-01-30T08:35:18.205Z,22.23
2023-01-30T08:37:45.446Z,22.25
2023-01-30T08:40:13.096Z,20.67
2023-01-30T08:42:40.282Z,18.75
2023-01-30T08:45:08.030Z,19.27
2023-01-30T08:47:35.805Z,19.85
2023-01-30T08:50:04.258Z,19.17
2023-01-30T08:52:33.569Z,20.50
2023-01-30T08:55:00.743Z,21.37
2023-01-30T08:57:28.052Z,19.50
2023-01-30T08:59:55.243Z,21.30
2023-01-30T09:02:22.582Z,17.65
2023-01-30T09:04:49.813Z,20.05
2023-01-30T09:07:16.915Z,20.10
2023-01-30T09:09:43.995Z,24.48
2023-01-30T09:12:11.089Z,20.38
2023-01-30T09:14:38.151Z,22.00
2023-01-30T09:17:05.233Z,21.15
2023-01-30T09:19:32.354Z,22.27
2023-01-30T09:21:59.545Z,20.50
2023-01-30T09:24:27.011Z,26.98
2023-01-30T09:26:57.342Z,23.58
2023-01-30T09:29:25.399Z,21.42
2023-01-30T09:31:52.597Z,23.83
2023-01-30T09:34:19.948Z,23.35
2023-01-30T09:36:47.006Z,20.98
2023-01-30T09:39:14.094Z,23.92
2023-01-30T09:42:06.046Z,23.55
2023-01-30T09:44:57.515Z,30.98
2023-01-30T09:47:49.080Z,27.40
2023-01-30T09:50:40.732Z,29.42
2023-01-30T09:53:26.147Z,25.42
2023-01-30T09:55:53.379Z,26.13
2023-01-30T09:58:23.075Z,22.65
2023-01-30T10:00:55.512Z,23.13
2023-01-30T10:03:40.126Z,21.08
2023-01-30T10:06:16.630Z,25.77
2023-01-30T10:09:06.786Z,23.42
2023-01-30T10:14:25.243Z,25.45
2023-01-30T10:17:23.667Z,27.02
2023-01-30T10:20:18.005Z,25.25
2023-01-30T10:23:06.462Z,23.80
2023-01-30T10:25:56.235Z,26.42
2023-01-30T10:28:23.233Z,26.60
2023-01-30T10:30:55.133Z,27.02
2023-01-30T10:33:28.834Z,32.05
2023-01-30T10:36:04.652Z,32.97
2023-01-30T10:38:50.089Z,33.45
2023-01-30T10:41:27.243Z,28.00
2023-01-30T10:44:06.335Z,31.40
2023-01-30T10:46:48.904Z,28.45
2023-01-30T10:49:23.062Z,32.95
2023-01-30T10:52:11.756Z,29.33
2023-01-30T10:54:48.740Z,29.20
2023-01-30T10:57:29.615Z,28.35
2023-01-30T11:00:05.813Z,30.27
2023-01-30T11:02:51.901Z,30.40
2023-01-30T11:05:24.548Z,29.38
2023-01-30T11:07:51.785Z,28.52
2023-01-30T11:10:24.283Z,28.67
2023-01-30T11:13:00.265Z,29.27
2023-01-30T11:15:45.832Z,30.35
2023-01-30T11:19:01.803Z,27.77
2023-01-30T11:21:27.061Z,26.88
2023-01-30T11:24:04.951Z,27.98
2023-01-30T11:26:46.748Z,30.90
2023-01-30T11:29:32.044Z,27.88
2023-01-30T11:32:05.959Z,28.40
2023-01-30T11:34:33.507Z,28.13
2023-01-30T11:37:23.105Z,27.58
2023-01-30T11:39:53.054Z,25.98
2023-01-30T11:42:24.533Z,22.25
2023-01-30T11:45:17.278Z,22.38
2023-01-30T11:47:59.368Z,23.98
2023-01-30T11:50:37.055Z,29.05
2023-01-30T11:54:03.131Z,26.42
2023-01-30T11:56:36.333Z,23.70
2023-01-30T11:59:07.967Z,22.42
2023-01-30T12:01:37.820Z,23.02
2023-01-30T12:04:13.089Z,23.83
2023-01-30T12:06:42.987Z,21.88
2023-01-30T12:09:28.826Z,21.08
2023-01-30T12:11:56.132Z,22.00
2023-01-30T12:14:46.956Z,27.30
2023-01-30T12:17:22.653Z,22.23
2023-01-30T12:19:57.387Z,23.15
2023-01-30T12:22:53.253Z,20.40
2023-01-30T12:25:34.392Z,18.20
2023-01-30T12:28:24.365Z,21.58
2023-01-30T12:31:12.328Z,19.45
2023-01-30T12:33:40.084Z,19.48
2023-01-30T12:36:23.187Z,18.05
2023-01-30T12:38:53.344Z,16.95
2023-01-30T12:44:14.543Z,14.13
2023-01-30T12:46:47.392Z,15.30
2023-01-30T12:49:55.398Z,21.33
2023-01-30T12:52:22.630Z,14.05
2023-01-30T12:55:21.993Z,17.38
2023-01-30T12:58:02.842Z,16.53
2023-01-30T13:01:02.508Z,19.23
2023-01-30T13:03:41.908Z,17.27
2023-01-30T13:06:27.037Z,18.57
2023-01-30T13:09:32.541Z,17.55
2023-01-30T13:12:12.492Z,15.88
2023-01-30T13:14:53.159Z,20.60
2023-01-30T13:17:38.699Z,14.35
2023-01-30T13:20:22.868Z,18.15
2023-01-30T13:23:06.513Z,16.23
2023-01-30T13:25:46.680Z,16.45
2023-01-30T13:30:48.748Z,15.20
2023-01-30T13:33:38.482Z,15.60
2023-01-30T13:36:22.176Z,17.92
2023-01-30T13:39:12.634Z,14.13
2023-01-30T13:41:55.189Z,16.58
2023-01-30T13:44:27.936Z,18.67
2023-01-30T13:46:57.201Z,17.52
2023-01-30T13:50:00.382Z,19.77
2023-01-30T13:52:35.404Z,20.65
2023-01-30T13:55:29.744Z,18.15
2023-01-30T13:58:10.753Z,17.45
2023-01-30T14:00:38.110Z,18.10
2023-01-30T14:03:07.739Z,19.58
2023-01-30T14:06:01.211Z,18.80
2023-01-30T14:08:35.201Z,19.35
2023-01-30T14:11:02.669Z,20.35
2023-01-30T14:13:31.340Z,20.70
2023-01-30T14:16:05.610Z,20.60
2023-01-30T14:18:42.653Z,18.70
2023-01-30T14:21:20.578Z,18.77
2023-01-30T14:24:01.766Z,18.83
2023-01-30T14:26:50.644Z,20.33
2023-01-30T14:29:42.571Z,14.18
2023-01-30T14:32:13.102Z,17.75
2023-01-30T14:34:44.462Z,17.65
2023-01-30T14:37:30.057Z,15.82
2023-01-30T14:39:58.488Z,12.35
2023-01-30T14:42:28.326Z,11.70
2023-01-30T14:45:06.101Z,13.23
2023-01-30T14:47:46.708Z,11.00
2023-01-30T14:50:22.865Z,16.00
2023-01-30T14:52:55.804Z,12.65
2023-01-30T14:55:29.781Z,11.60
2023-01-30T14:58:01.865Z,8.82
2023-01-30T15:00:36.644Z,11.88
2023-01-30T15:03:09.829Z,11.38
2023-01-30T15:05:45.476Z,10.85
2023-01-30T15:08:15.653Z,10.77
2023-01-30T15:11:03.831Z,10.13
2023-01-30T15:13:49.532Z,12.63
2023-01-30T15:16:37.888Z,9.20
2023-01-30T15:19:24.444Z,11.05
2023-01-30T15:22:11.827Z,13.65
2023-01-30T15:24:59.932Z,11.77
2023-01-30T15:28:14.685Z,15.40
2023-01-30T15:31:05.608Z,13.90
2023-01-30T15:33:32.907Z,13.15
2023-01-30T15:36:00.931Z,14.90
2023-01-30T15:38:32.156Z,10.80
2023-01-30T15:41:04.711Z,11.20
2023-01-30T15:43:54.316Z,13.55
2023-01-30T15:46:33.234Z,10.32
2023-01-30T15:49:30.993Z,10.73
2023-01-30T15:52:03.512Z,9.95
2023-01-30T15:54:30.841Z,9.70
2023-01-30T15:56:58.943Z,8.45
2023-01-30T15:59:35.073Z,10.82
2023-01-30T16:02:21.612Z,10.13
2023-01-30T16:04:48.701Z,8.25
2023-01-30T16:07:26.921Z,11.25
2023-01-30T16:10:07.309Z,8.63
2023-01-30T16:12:36.688Z,11.07
2023-01-30T16:15:18.698Z,8.77
2023-01-30T16:17:56.865Z,8.15
2023-01-30T16:20:24.086Z,9.55
2023-01-30T16:22:51.372Z,8.70
2023-01-30T16:25:25.350Z,9.32
2023-01-30T16:27:53.915Z,8.35
2023-01-30T16:30:24.825Z,8.60
2023-01-30T16:32:54.434Z,8.48
2023-01-30T16:35:27.226Z,9.18
2023-01-30T16:37:57.766Z,8.80
2023-01-30T16:40:34.680Z,8.95
2023-01-30T16:43:19.813Z,11.02
2023-01-30T16:45:53.170Z,13.68
2023-01-30T16:48:20.330Z,9.52
2023-01-30T16:51:00.618Z,14.07
2023-01-30T16:53:32.668Z,9.65
2023-01-30T16:56:07.894Z,8.88
2023-01-30T16:58:37.010Z,11.55
2023-01-30T17:01:08.846Z,11.43
2023-01-30T17:03:39.421Z,10.95
2023-01-30T17:06:15.339Z,11.07
2023-01-30T17:08:48.434Z,14.73
2023-01-30T17:11:42.804Z,10.77
2023-01-30T17:14:27.650Z,19.90
2023-01-30T17:17:08.541Z,13.10
2023-01-30T17:19:36.654Z,10.68
2023-01-30T17:22:07.006Z,19.60
2023-01-30T17:24:36.322Z,11.02
2023-01-30T17:27:04.815Z,18.93
2023-01-30T17:29:49.122Z,12.20
2023-01-30T17:32:16.776Z,13.52
2023-01-30T17:34:44.007Z,11.15
2023-01-30T17:37:17.333Z,13.98
2023-01-30T17:39:44.842Z,12.77
2023-01-30T17:42:13.749Z,13.90
2023-01-30T17:44:41.152Z,10.93
2023-01-30T17:47:11.868Z,11.30
2023-01-30T17:49:39.373Z,8.65
2023-01-30T17:52:07.303Z,11.35
2023-01-30T17:54:34.534Z,13.25
2023-01-30T17:57:04.916Z,14.20
2023-01-30T17:59:32.854Z,13.23
2023-01-30T18:02:00.383Z,12.02
2023-01-30T18:04:27.587Z,11.48
2023-01-30T18:07:03.855Z,10.40
2023-01-30T18:09:32.111Z,8.98
2023-01-30T18:11:59.317Z,7.97
2023-01-30T18:14:26.406Z,12.48
2023-01-30T18:17:00.161Z,11.02
2023-01-30T18:19:29.162Z,10.77
2023-01-30T18:21:58.507Z,10.48
2023-01-30T18:24:26.018Z,8.50
2023-01-30T18:26:53.388Z,14.02
2023-01-30T18:29:20.830Z,8.30
2023-01-30T18:31:48.063Z,12.07
2023-01-30T18:34:15.217Z,8.43
2023-01-30T18:36:42.432Z,8.65
2023-01-30T18:39:09.499Z,10.27
2023-01-30T18:41:36.750Z,9.32
2023-01-30T18:44:05.855Z,7.85
2023-01-30T18:46:33.609Z,10.67
2023-01-30T18:49:00.964Z,7.78
2023-01-30T18:51:34.108Z,10.10
2023-01-30T18:54:01.996Z,7.78
2023-01-30T18:56:32.054Z,9.23
2023-01-30T18:59:03.402Z,8.57
2023-01-30T19:01:36.847Z,10.65
2023-01-30T19:04:06.094Z,10.50
2023-01-30T19:06:37.311Z,12.93
2023-01-30T19:09:05.545Z,10.38
2023-01-30T19:11:51.697Z,10.18
2023-01-30T19:14:19.192Z,9.48
2023-01-30T19:16:46.338Z,8.02
2023-01-30T19:19:13.806Z,9.52
2023-01-30T19:21:40.876Z,14.68
2023-01-30T19:24:12.455Z,13.73
2023-01-30T19:26:40.064Z,11.80
2023-01-30T19:29:07.236Z,9.68
2023-01-30T19:31:34.410Z,12.20
2023-01-30T19:34:06.827Z,12.68
2023-01-30T19:36:36.328Z,14.68
2023-01-30T19:39:05.915Z,13.82
2023-01-30T19:41:35.853Z,8.27
2023-01-30T19:44:05.214Z,12.60
2023-01-30T19:46:32.817Z,9.17
2023-01-30T19:49:00.159Z,13.68
2023-01-30T19:51:30.119Z,10.27
2023-01-30T19:54:02.300Z,9.93
2023-01-30T19:56:30.467Z,12.88
2023-01-30T19:58:59.537Z,8.65
2023-01-30T20:01:29.907Z,11.40
2023-01-30T20:03:57.703Z,11.57
2023-01-30T20:06:27.711Z,10.57
2023-01-30T20:08:58.537Z,14.85
2023-01-30T20:11:26.014Z,12.93
2023-01-30T20:13:53.734Z,10.68
2023-01-30T20:16:25.651Z,11.00
2023-01-30T20:18:58.412Z,12.75
2023-01-30T20:21:26.355Z,12.00
2023-01-30T20:23:53.914Z,13.90
2023-01-30T20:26:26.683Z,14.27
2023-01-30T20:28:57.861Z,13.75
2023-01-30T20:31:27.774Z,13.65
2023-01-30T20:33:57.672Z,12.95
2023-01-30T20:36:27.317Z,13.20
2023-01-30T20:38:55.776Z,14.65
2023-01-30T20:41:25.554Z,12.95
2023-01-30T20:43:57.503Z,18.33
2023-01-30T20:46:27.629Z,9.50
2023-01-30T20:48:57.013Z,10.77
2023-01-30T20:51:27.718Z,11.38
2023-01-30T20:54:00.201Z,13.45
2023-01-30T20:56:31.954Z,16.23
2023-01-30T20:58:59.113Z,11.80
2023-01-30T21:01:26.276Z,8.32
2023-01-30T21:03:54.516Z,13.98
2023-01-30T21:06:41.239Z,12.52
2023-01-30T21:11:48.975Z,12.85
2023-01-30T21:14:17.543Z,10.17
2023-01-30T21:16:45.023Z,14.25
2023-01-30T21:19:16.131Z,12.88
2023-01-30T21:21:51.018Z,14.20
2023-01-30T21:24:21.963Z,13.57
2023-01-30T21:26:49.131Z,14.18
2023-01-30T21:29:18.869Z,10.43
2023-01-30T21:31:46.563Z,14.10
2023-01-30T21:34:14.097Z,15.15
2023-01-30T21:36:41.607Z,13.95
2023-01-30T21:39:31.871Z,13.90
2023-01-30T21:44:28.653Z,10.90
2023-01-30T21:46:56.045Z,12.73
2023-01-30T21:49:28.268Z,13.63
2023-01-30T21:51:55.732Z,13.00
2023-01-30T21:54:23.290Z,13.43
2023-01-30T21:56:51.114Z,14.23
2023-01-30T21:59:18.420Z,15.93
2023-01-30T22:01:46.431Z,13.23
2023-01-30T22:04:15.587Z,13.70
2023-01-30T22:06:43.610Z,18.00
2023-01-30T22:09:15.387Z,12.10
2023-01-30T22:11:43.359Z,12.65
2023-01-30T22:14:13.539Z,15.82
2023-01-30T22:19:08.812Z,15.23
2023-01-30T22:21:40.422Z,13.70
2023-01-30T22:24:09.127Z,16.88
2023-01-30T22:26:36.722Z,11.35
2023-01-30T22:29:06.575Z,21.00
2023-01-30T22:31:36.452Z,12.43
2023-01-30T22:34:04.786Z,17.98
2023-01-30T22:36:33.839Z,20.38
2023-01-30T22:39:02.136Z,17.92
2023-01-30T22:41:34.857Z,19.40
2023-01-30T22:44:03.149Z,12.38
2023-01-30T22:46:32.989Z,13.70
2023-01-30T22:49:01.487Z,19.05
2023-01-30T22:51:40.539Z,18.00
2023-01-30T22:54:11.500Z,13.50
2023-01-30T22:56:41.122Z,19.75
2023-01-30T22:59:09.264Z,21.08
2023-01-30T23:01:39.338Z,20.95
2023-01-30T23:06:34.889Z,18.08
2023-01-30T23:09:03.244Z,15.00
2023-01-30T23:11:33.628Z,15.00
2023-01-30T23:14:15.213Z,18.50
2023-01-30T23:16:45.248Z,20.42
2023-01-30T23:19:13.735Z,22.95
2023-01-30T23:21:43.638Z,18.38
2023-01-30T23:24:16.844Z,21.65
2023-01-30T23:26:46.572Z,13.73
2023-01-30T23:29:17.719Z,15.15
2023-01-30T23:31:45.879Z,15.68
2023-01-30T23:34:18.372Z,23.65
2023-01-30T23:36:46.665Z,15.90
2023-01-30T23:39:14.796Z,22.75
2023-01-30T23:41:42.911Z,16.52
2023-01-30T23:44:10.615Z,17.00
2023-01-30T23:46:40.297Z,13.85
2023-01-30T23:49:12.432Z,20.75
2023-01-30T23:51:41.869Z,22.23
2023-01-30T23:54:09.794Z,18.27
2023-01-30T23:56:40.439Z,23.10
2023-01-30T23:59:08.195Z,23.55
